Time;durP1;ratioP1;P1;durP2;ratioP2;P2;SDS_P1;SDS_P2;PMS_P1;PMS_P2;Temp;Humidity;BMP_temperature;BMP_pressure;BME280_temperature;BME280_humidity;BME280_pressure;Samples;Min_cycle;Max_cycle;Signal;HPM_P1;HPM_P2
2022/02/17 00:01:35;;;;;;;2.70;0.32;;;;;;;15.65;60.49;97855.16;4999314;28;96935;-80
2022/02/17 00:04:02;;;;;;;1.95;0.20;;;;;;;15.43;61.07;97841.31;5000002;28;101644;-80
2022/02/17 00:06:28;;;;;;;0.63;0.30;;;;;;;15.98;59.32;97842.88;5003650;28;101464;-79
2022/02/17 00:08:55;;;;;;;0.30;0.22;;;;;;;15.83;60.08;97837.28;5003625;28;97048;-79
2022/02/17 00:11:22;;;;;;;0.63;0.20;;;;;;;15.76;60.21;97820.28;4998173;28;96721;-80
2022/02/17 00:13:50;;;;;;;2.08;0.30;;;;;;;15.39;61.61;97818.69;5009496;28;98062;-78
2022/02/17 00:16:17;;;;;;;0.30;0.20;;;;;;;15.73;60.54;97808.13;5011374;28;97841;-79
2022/02/17 00:18:43;;;;;;;0.40;0.30;;;;;;;15.55;61.37;97833.97;5014512;28;98854;-79
2022/02/17 00:21:10;;;;;;;0.57;0.20;;;;;;;15.63;61.14;97831.34;5017454;28;97605;-80
2022/02/17 00:23:37;;;;;;;0.10;0.10;;;;;;;15.60;61.47;97831.69;5017170;27;98146;-79
2022/02/17 00:26:03;;;;;;;0.85;0.20;;;;;;;15.54;62.04;97821.66;5019970;28;97834;-80
2022/02/17 00:28:30;;;;;;;1.25;0.20;;;;;;;15.79;61.46;97819.97;5007460;28;96798;-79
2022/02/17 00:30:58;;;;;;;3.10;0.13;;;;;;;15.51;62.59;97812.13;4988818;28;98609;-78
2022/02/17 00:33:24;;;;;;;0.17;0.17;;;;;;;15.42;63.23;97791.78;4996552;28;99160;-79
2022/02/17 00:35:51;;;;;;;0.28;0.10;;;;;;;15.24;63.75;97788.31;4997558;28;99544;-78
2022/02/17 00:38:17;;;;;;;0.10;0.10;;;;;;;15.44;63.40;97794.25;5001748;28;96712;-79
2022/02/17 00:40:44;;;;;;;1.25;0.20;;;;;;;15.23;63.86;97769.88;4996905;28;96874;-79
2022/02/17 00:43:10;;;;;;;0.22;0.10;;;;;;;15.37;63.33;97794.06;4998659;28;99003;-78
2022/02/17 00:45:37;;;;;;;2.65;0.17;;;;;;;15.08;65.13;97751.81;5003756;28;98828;-79
2022/02/17 00:48:05;;;;;;;2.30;0.30;;;;;;;15.55;64.53;97788.72;5001211;28;96657;-78
2022/02/17 00:50:32;;;;;;;1.08;0.10;;;;;;;15.45;65.19;97769.31;4998131;28;96956;-79
2022/02/17 00:52:58;;;;;;;0.30;0.25;;;;;;;15.10;66.87;97780.88;4997988;28;100733;-78
2022/02/17 00:55:25;;;;;;;0.10;0.10;;;;;;;15.51;65.62;97780.19;5000101;28;98932;-78
2022/02/17 00:57:51;;;;;;;0.40;0.20;;;;;;;15.30;66.60;97765.56;4998613;28;96775;-78
2022/02/17 01:00:18;;;;;;;25.08;0.65;;;;;;;15.13;66.81;97765.47;4999612;28;96798;-77
2022/02/17 01:02:44;;;;;;;0.10;0.10;;;;;;;15.09;68.13;97758.78;5003425;28;97619;-79
2022/02/17 01:05:12;;;;;;;0.10;0.10;;;;;;;15.22;68.03;97782.31;5000914;28;97659;-80
2022/02/17 01:07:39;;;;;;;1.77;0.30;;;;;;;14.87;69.57;97864.75;5002218;28;96813;-77
2022/02/17 01:10:07;;;;;;;8.82;1.10;;;;;;;14.28;74.36;97943.09;5004887;28;98855;-79
2022/02/17 01:12:33;;;;;;;6.72;0.90;;;;;;;13.99;72.61;97972.38;5002645;28;98874;-80
2022/02/17 01:15:00;;;;;;;4.35;1.08;;;;;;;12.25;70.39;98000.38;5004337;28;97519;-80
2022/02/17 01:17:26;;;;;;;6.25;0.90;;;;;;;12.03;70.01;98047.28;5008881;28;96621;-80
2022/02/17 01:19:53;;;;;;;6.22;0.73;;;;;;;11.62;71.21;98062.13;5015549;28;96718;-80
2022/02/17 01:22:21;;;;;;;7.65;1.05;;;;;;;11.46;70.36;98074.94;5007377;28;96877;-80
2022/02/17 01:24:47;;;;;;;3.78;1.00;;;;;;;11.85;70.00;98079.63;5002559;28;101732;-80
2022/02/17 01:27:15;;;;;;;3.53;1.00;;;;;;;11.66;68.99;98025.69;5000710;28;96664;-79
2022/02/17 01:29:42;;;;;;;5.75;1.10;;;;;;;11.75;69.68;98039.00;5002920;28;96874;-79
2022/02/17 01:32:14;;;;;;;7.50;0.90;;;;;;;12.14;67.83;98034.84;5013220;28;98632;-78
2022/02/17 01:34:47;;;;;;;4.63;0.70;;;;;;;11.39;69.00;98016.41;5013251;28;100462;-80
2022/02/17 01:40:30;;;;;;;4.28;0.60;;;;;;;11.23;68.02;97968.38;5013239;28;98341;-78
2022/02/17 01:42:58;;;;;;;5.85;1.17;;;;;;;11.16;66.11;97931.06;5008957;28;96827;-79
2022/02/17 01:45:35;;;;;;;3.35;0.80;;;;;;;11.67;64.73;97942.72;5005403;28;101285;-80
2022/02/17 01:48:05;;;;;;;4.68;1.00;;;;;;;11.50;65.00;97979.34;5006282;28;96710;-79
2022/02/17 01:50:40;;;;;;;3.85;0.90;;;;;;;11.45;65.04;98013.25;5006628;28;96709;-78
2022/02/17 01:53:08;;;;;;;5.18;0.77;;;;;;;11.78;64.24;98011.47;5000625;28;98517;-79
2022/02/17 01:55:38;;;;;;;4.78;0.60;;;;;;;12.00;64.33;98003.44;5003979;28;98806;-79
2022/02/17 01:58:06;;;;;;;4.05;0.70;;;;;;;11.43;64.36;98023.13;4998035;28;96594;-79
2022/02/17 02:00:34;;;;;;;9.95;1.40;;;;;;;12.21;62.71;98041.28;5002342;28;98745;-79
2022/02/17 02:03:01;;;;;;;6.30;0.90;;;;;;;12.17;62.71;98002.81;4998838;28;98242;-79
2022/02/17 02:05:27;;;;;;;3.38;0.88;;;;;;;12.59;61.71;98011.53;4990998;22;99354;-72
2022/02/17 02:07:54;;;;;;;4.68;0.80;;;;;;;12.44;61.22;98019.97;4966227;28;97171;-73
2022/02/17 02:10:21;;;;;;;3.08;0.80;;;;;;;12.36;60.68;98042.66;4970233;28;97360;-73
2022/02/17 02:12:49;;;;;;;2.50;0.50;;;;;;;12.37;61.08;98023.16;4965687;28;99108;-73
2022/02/17 02:15:15;;;;;;;3.80;0.68;;;;;;;12.50;60.38;98030.88;4964785;28;99013;-73
2022/02/17 02:17:44;;;;;;;3.88;0.70;;;;;;;12.06;61.54;98041.75;4963422;28;97547;-73
2022/02/17 02:20:15;;;;;;;6.78;0.80;;;;;;;12.46;60.76;98055.94;4972306;28;97659;-73
2022/02/17 02:22:42;;;;;;;7.40;1.17;;;;;;;12.32;60.06;98051.81;4969262;28;99048;-73
2022/02/17 02:25:09;;;;;;;5.10;0.95;;;;;;;12.25;60.28;98029.50;4969083;28;99547;-73
2022/02/17 02:27:36;;;;;;;9.73;1.10;;;;;;;12.56;59.65;98034.78;4973096;28;96927;-73
2022/02/17 02:30:04;;;;;;;6.15;1.00;;;;;;;11.64;61.89;98015.22;4966905;28;97140;-72
2022/02/17 02:32:30;;;;;;;7.78;1.00;;;;;;;12.02;61.39;98003.28;4972111;28;99491;-72
2022/02/17 02:34:56;;;;;;;7.10;1.38;;;;;;;12.18;60.19;97999.22;4964139;28;99537;-73
2022/02/17 02:37:24;;;;;;;11.05;1.38;;;;;;;12.10;60.03;97996.38;4971536;28;97344;-73
2022/02/17 02:39:51;;;;;;;7.13;1.58;;;;;;;11.95;60.17;97979.97;4969124;28;97138;-73
2022/02/17 02:42:17;;;;;;;8.73;1.00;;;;;;;11.85;60.27;97980.91;4972831;28;99452;-73
2022/02/17 02:44:44;;;;;;;10.10;1.63;;;;;;;12.04;59.90;97954.53;4968401;28;98838;-73
2022/02/17 02:47:10;;;;;;;4.78;1.13;;;;;;;12.19;59.65;97952.41;4973030;28;96744;-72
2022/02/17 02:49:37;;;;;;;6.70;1.30;;;;;;;12.06;58.81;97938.53;4970333;28;96750;-73
2022/02/17 02:52:04;;;;;;;11.55;1.95;;;;;;;12.07;59.48;97949.00;4963540;28;98643;-73
2022/02/17 02:54:32;;;;;;;10.55;1.52;;;;;;;11.94;60.54;97994.19;4969470;28;99521;-73
2022/02/17 02:56:58;;;;;;;5.93;1.17;;;;;;;12.21;59.86;98006.88;4966039;28;96975;-73
2022/02/17 02:59:24;;;;;;;11.35;1.70;;;;;;;12.53;58.93;98014.72;4966196;28;96878;-72
2022/02/17 03:01:51;;;;;;;11.00;1.67;;;;;;;11.92;59.76;98004.06;4965583;28;99103;-73
2022/02/17 03:04:17;;;;;;;7.90;1.83;;;;;;;12.09;59.17;97994.69;4965467;28;99506;-74
2022/02/17 03:06:43;;;;;;;8.13;1.63;;;;;;;11.93;59.51;97989.03;4970715;28;96888;-74
2022/02/17 03:09:10;;;;;;;10.70;1.30;;;;;;;11.98;59.49;97966.50;4969521;28;97015;-74
2022/02/17 03:11:37;;;;;;;8.32;1.38;;;;;;;12.36;58.54;97965.84;4969488;28;98872;-74
2022/02/17 03:14:04;;;;;;;10.07;1.80;;;;;;;12.54;58.06;97950.16;4969961;28;99035;-74
2022/02/17 03:16:31;;;;;;;9.70;1.25;;;;;;;12.30;57.01;97941.72;4971707;28;97096;-74
2022/02/17 03:18:57;;;;;;;7.57;1.00;;;;;;;11.95;58.31;97965.91;4970051;28;96812;-73
2022/02/17 03:21:23;;;;;;;7.70;1.30;;;;;;;12.23;56.63;97959.09;4981518;28;99720;-72
2022/02/17 03:23:50;;;;;;;8.93;1.50;;;;;;;12.41;55.95;97967.25;4991196;28;98166;-72
2022/02/17 03:26:16;;;;;;;8.75;1.30;;;;;;;12.24;55.37;97951.03;4987625;28;96496;-72
2022/02/17 03:28:44;;;;;;;6.75;1.38;;;;;;;11.99;55.95;97956.75;4975274;28;97067;-74
2022/02/17 03:31:10;;;;;;;8.45;1.23;;;;;;;12.19;54.47;97961.19;4970878;28;99029;-73
2022/02/17 03:33:36;;;;;;;6.70;1.13;;;;;;;12.39;53.97;97964.75;4968553;28;97648;-73
2022/02/17 03:36:03;;;;;;;12.65;1.50;;;;;;;12.39;53.61;97959.47;4968832;28;97981;-73
2022/02/17 03:38:31;;;;;;;12.10;1.92;;;;;;;12.54;52.52;97920.19;4965912;28;96947;-74
2022/02/17 03:40:57;;;;;;;11.63;1.30;;;;;;;12.40;53.28;97902.03;4959085;28;98379;-73
2022/02/17 03:43:23;;;;;;;10.00;1.30;;;;;;;12.45;52.63;97928.97;4971955;28;99051;-73
2022/02/17 03:45:51;;;;;;;9.93;1.20;;;;;;;12.56;52.26;97934.13;4971926;28;96761;-73
2022/02/17 03:48:17;;;;;;;7.47;1.55;;;;;;;12.34;52.82;97914.81;4969988;28;96860;-73
2022/02/17 03:50:43;;;;;;;7.47;1.35;;;;;;;12.59;51.86;97923.28;4972452;28;99016;-73
2022/02/17 03:53:10;;;;;;;9.25;1.70;;;;;;;12.43;51.82;97938.84;4972646;28;98733;-73
2022/02/17 03:55:36;;;;;;;5.82;0.95;;;;;;;12.15;52.28;97925.34;4971387;28;98567;-73
2022/02/17 03:58:03;;;;;;;3.38;0.80;;;;;;;12.14;52.58;97913.06;4972519;28;96880;-74
2022/02/17 04:00:29;;;;;;;6.47;0.90;;;;;;;12.44;51.89;97921.97;4970316;28;99071;-74
2022/02/17 04:02:57;;;;;;;5.50;1.05;;;;;;;12.53;52.08;97945.88;4974086;28;99630;-72
2022/02/17 04:05:24;;;;;;;8.30;1.15;;;;;;;12.60;51.82;97965.50;4971653;28;97588;-73
2022/02/17 04:07:50;;;;;;;5.95;1.42;;;;;;;12.68;51.88;97964.84;4972331;28;96762;-73
2022/02/17 04:10:16;;;;;;;7.25;1.15;;;;;;;12.49;52.71;97960.31;4970535;28;101469;-72
2022/02/17 04:12:43;;;;;;;8.40;1.52;;;;;;;12.50;52.34;97956.72;4968953;28;100354;-73
2022/02/17 04:15:10;;;;;;;7.40;1.77;;;;;;;12.75;52.66;97982.72;4972551;28;96989;-73
2022/02/17 04:17:36;;;;;;;5.20;1.23;;;;;;;12.94;52.00;97973.16;4973179;28;99191;-74
2022/02/17 04:20:05;;;;;;;6.50;1.10;;;;;;;12.52;53.09;97968.03;4969714;28;99296;-73
2022/02/17 04:22:32;;;;;;;10.60;1.50;;;;;;;13.05;52.03;97981.84;4970721;28;98830;-73
2022/02/17 04:24:58;;;;;;;12.63;1.52;;;;;;;13.03;51.76;97975.84;4972997;28;96767;-74
2022/02/17 04:27:24;;;;;;;11.98;1.65;;;;;;;12.52;52.85;97991.84;4971170;28;98110;-73
2022/02/17 04:29:50;;;;;;;11.15;1.75;;;;;;;12.62;52.95;98005.97;4971610;28;98237;-74
2022/02/17 04:32:17;;;;;;;8.68;1.30;;;;;;;12.28;53.78;98033.66;4969402;28;99020;-75
2022/02/17 04:34:43;;;;;;;9.75;1.30;;;;;;;12.06;53.80;98053.19;4969258;28;97022;-73
2022/02/17 04:37:11;;;;;;;12.07;1.35;;;;;;;11.81;54.88;98093.25;4969903;28;97985;-73
2022/02/17 04:39:37;;;;;;;4.32;0.90;;;;;;;11.82;54.31;98082.50;4968003;28;99137;-73
2022/02/17 04:42:18;;;;;;;8.63;0.80;;;;;;;11.22;56.64;98092.78;4969643;28;99199;-72
2022/02/17 04:44:45;;;;;;;5.18;0.90;;;;;;;11.55;55.38;98074.19;4965554;28;97622;-73
2022/02/17 04:47:12;;;;;;;6.90;1.42;;;;;;;11.28;56.06;98087.84;4964371;28;98406;-73
2022/02/17 04:49:38;;;;;;;4.25;0.55;;;;;;;11.34;55.61;98086.50;4969676;28;99638;-72
2022/02/17 04:52:05;;;;;;;3.40;0.52;;;;;;;10.99;55.53;98065.50;4971220;28;98865;-73
2022/02/17 04:54:33;;;;;;;1.67;0.35;;;;;;;10.91;55.30;98112.84;4971033;28;96816;-73
2022/02/17 04:57:00;;;;;;;5.97;0.32;;;;;;;10.96;54.15;98085.09;4973277;28;96866;-73
2022/02/17 04:59:26;;;;;;;2.08;0.30;;;;;;;10.43;56.31;98099.84;4964255;28;99131;-72
2022/02/17 05:01:52;;;;;;;1.95;0.43;;;;;;;11.05;54.96;98134.56;4969052;28;98911;-72
2022/02/17 05:04:19;;;;;;;2.67;0.30;;;;;;;10.96;54.73;98126.53;4968108;28;97301;-73
2022/02/17 05:06:45;;;;;;;2.45;0.40;;;;;;;11.26;54.23;98126.75;4971603;28;96835;-73
2022/02/17 05:09:12;;;;;;;5.57;0.60;;;;;;;11.22;54.23;98135.06;4970382;28;98948;-74
2022/02/17 05:11:39;;;;;;;7.47;1.00;;;;;;;11.43;53.82;98136.81;4972420;28;98739;-72
2022/02/17 05:14:05;;;;;;;9.10;0.98;;;;;;;11.23;54.32;98121.69;4971960;28;97673;-72
2022/02/17 05:16:32;;;;;;;4.53;0.85;;;;;;;11.41;53.71;98125.53;4969723;28;96831;-72
2022/02/17 05:18:58;;;;;;;7.38;0.95;;;;;;;11.66;53.27;98118.25;4966403;28;99383;-73
2022/02/17 05:21:25;;;;;;;5.60;0.90;;;;;;;11.38;53.91;98127.56;4972191;28;98334;-73
2022/02/17 05:23:51;;;;;;;8.80;1.20;;;;;;;11.72;53.97;98142.41;4970102;28;96850;-72
2022/02/17 05:26:18;;;;;;;9.15;1.10;;;;;;;11.72;53.64;98149.50;4971263;28;97570;-72
2022/02/17 05:28:45;;;;;;;4.53;0.82;;;;;;;11.21;54.95;98126.28;4970878;28;99303;-72
2022/02/17 05:31:12;;;;;;;7.68;0.70;;;;;;;11.90;53.59;98127.72;4973741;28;99582;-73
2022/02/17 05:33:38;;;;;;;9.43;1.05;;;;;;;11.62;53.57;98132.72;4969851;28;96716;-73
2022/02/17 05:36:05;;;;;;;4.57;0.90;;;;;;;11.39;54.58;98129.25;4967545;28;97007;-72
2022/02/17 05:38:31;;;;;;;3.20;0.80;;;;;;;11.14;55.35;98133.88;4965931;28;99239;-73
2022/02/17 05:40:58;;;;;;;6.30;0.95;;;;;;;11.34;54.84;98129.63;4969470;28;98770;-72
2022/02/17 05:43:24;;;;;;;5.22;0.93;;;;;;;11.89;53.79;98136.63;4966741;28;97265;-75
2022/02/17 05:45:52;;;;;;;9.40;1.13;;;;;;;11.64;54.05;98139.53;4964500;28;96840;-76
2022/02/17 05:48:19;;;;;;;9.98;1.67;;;;;;;11.39;54.24;98135.38;4970307;28;101631;-75
2022/02/17 05:50:45;;;;;;;8.60;1.17;;;;;;;11.08;55.06;98139.63;4965682;28;98964;-74
2022/02/17 05:53:12;;;;;;;8.68;1.45;;;;;;;11.44;53.81;98125.28;4965068;28;96856;-73
2022/02/17 05:55:38;;;;;;;8.70;1.38;;;;;;;11.16;53.77;98121.34;4965186;28;99090;-74
2022/02/17 05:58:05;;;;;;;7.50;1.50;;;;;;;11.23;52.81;98121.69;4970264;28;98972;-74
2022/02/17 06:00:31;;;;;;;9.40;1.52;;;;;;;10.84;52.19;98128.31;4964390;28;100767;-75
2022/02/17 06:02:59;;;;;;;10.77;1.33;;;;;;;10.88;51.79;98110.44;4971770;28;98830;-73
2022/02/17 06:05:25;;;;;;;9.40;1.90;;;;;;;10.81;50.57;98131.22;4971540;28;99053;-75
2022/02/17 06:07:51;;;;;;;14.32;3.05;;;;;;;10.74;49.63;98116.81;4970782;28;100629;-74
2022/02/17 06:10:17;;;;;;;13.43;2.05;;;;;;;11.33;48.76;98114.72;4966778;28;99343;-73
2022/02/17 06:12:45;;;;;;;14.32;1.70;;;;;;;11.62;46.95;98143.28;4970243;28;96755;-76
2022/02/17 06:15:13;;;;;;;9.68;1.63;;;;;;;11.49;47.38;98141.63;4968841;28;96801;-74
2022/02/17 06:17:40;;;;;;;12.63;1.55;;;;;;;11.47;46.30;98143.56;4969515;28;99238;-75
2022/02/17 06:20:09;;;;;;;11.63;1.70;;;;;;;11.42;45.29;98129.84;4965851;28;99138;-74
2022/02/17 06:22:43;;;;;;;7.07;1.60;;;;;;;11.07;45.61;98145.03;4965881;28;97150;-73
2022/02/17 06:25:09;;;;;;;12.65;1.98;;;;;;;11.44;44.96;98137.66;4966718;28;96770;-73
2022/02/17 06:27:36;;;;;;;10.23;1.90;;;;;;;11.50;44.71;98123.94;4966614;28;99181;-73
2022/02/17 06:30:04;;;;;;;17.35;2.33;;;;;;;11.70;44.33;98167.31;4964235;28;99420;-72
2022/02/17 06:32:30;;;;;;;9.70;1.65;;;;;;;11.53;44.90;98156.28;4966314;28;96792;-72
2022/02/17 06:34:56;;;;;;;17.70;2.30;;;;;;;11.25;46.46;98166.53;4969712;28;97383;-72
2022/02/17 06:37:24;;;;;;;15.73;1.83;;;;;;;11.57;45.53;98173.59;4969657;28;100141;-72
2022/02/17 06:39:50;;;;;;;13.98;2.33;;;;;;;11.72;45.97;98183.91;4968353;28;99270;-73
2022/02/17 06:42:16;;;;;;;15.13;1.95;;;;;;;11.35;46.51;98183.34;4971266;28;96698;-72
2022/02/17 06:44:42;;;;;;;12.68;2.15;;;;;;;11.47;45.97;98169.16;4969136;28;98095;-72
2022/02/17 06:47:09;;;;;;;15.00;1.70;;;;;;;11.45;46.02;98174.56;4965403;28;99663;-72
2022/02/17 06:49:35;;;;;;;14.85;2.05;;;;;;;11.53;45.67;98177.44;4966234;28;99347;-74
2022/02/17 06:52:04;;;;;;;10.07;1.70;;;;;;;11.44;45.72;98201.97;4969929;28;96894;-72
2022/02/17 06:54:32;;;;;;;8.60;1.70;;;;;;;12.15;44.85;98192.69;4963696;28;97760;-73
2022/02/17 06:56:58;;;;;;;11.77;2.58;;;;;;;11.52;44.25;98201.38;4970689;28;97792;-73
2022/02/17 06:59:25;;;;;;;14.45;1.90;;;;;;;11.04;45.51;98175.16;4967471;28;99374;-74
2022/02/17 07:01:51;;;;;;;15.65;2.10;;;;;;;11.36;45.32;98185.00;4963513;28;98692;-72
2022/02/17 07:04:18;;;;;;;15.73;1.73;;;;;;;11.13;44.46;98177.09;4965388;28;97392;-72
2022/02/17 07:06:47;;;;;;;15.00;2.10;;;;;;;11.22;45.04;98188.78;4967150;28;100793;-74
2022/02/17 07:09:13;;;;;;;16.27;2.33;;;;;;;11.34;43.98;98190.44;4961843;28;98839;-73
2022/02/17 07:11:41;;;;;;;12.23;1.50;;;;;;;11.54;44.17;98194.16;4966959;28;97525;-73
2022/02/17 07:14:10;;;;;;;8.85;2.35;;;;;;;11.62;42.88;98206.78;4967309;28;97287;-72
2022/02/17 07:16:36;;;;;;;12.50;1.95;;;;;;;11.93;42.28;98216.59;4963333;28;99144;-72
2022/02/17 07:19:02;;;;;;;15.45;2.33;;;;;;;11.59;42.83;98234.31;4968354;28;99121;-73
2022/02/17 07:21:29;;;;;;;26.02;7.38;;;;;;;12.03;42.29;98224.63;4974970;28;98086;-72
2022/02/17 07:23:55;;;;;;;17.50;2.85;;;;;;;11.82;42.05;98213.97;4979022;28;96880;-72
2022/02/17 07:26:21;;;;;;;22.23;2.13;;;;;;;11.76;42.33;98201.22;4973724;28;98920;-73
2022/02/17 07:28:49;;;;;;;17.55;2.05;;;;;;;11.68;42.38;98199.19;4970710;28;99068;-73
2022/02/17 07:31:15;;;;;;;20.63;1.80;;;;;;;11.36;43.93;98195.59;4975471;28;97188;-72
2022/02/17 07:33:42;;;;;;;19.67;2.63;;;;;;;11.49;42.29;98198.94;4970939;28;96827;-72
2022/02/17 07:36:09;;;;;;;14.23;2.22;;;;;;;11.58;42.03;98174.44;4966618;28;99006;-72
2022/02/17 07:38:36;;;;;;;15.95;2.50;;;;;;;11.66;41.88;98208.19;4969479;28;99202;-72
2022/02/17 07:41:03;;;;;;;18.40;3.42;;;;;;;11.65;41.70;98201.22;4972301;28;96734;-72
2022/02/17 07:43:29;;;;;;;16.88;2.10;;;;;;;12.18;40.64;98220.75;4969041;28;97963;-73
2022/02/17 07:46:00;;;;;;;13.43;1.80;;;;;;;11.80;40.51;98194.75;4972222;28;99305;-72
2022/02/17 07:48:27;;;;;;;16.27;3.05;;;;;;;11.39;42.00;98222.66;4972496;28;98211;-73
2022/02/17 07:50:53;;;;;;;19.08;2.35;;;;;;;11.64;40.76;98173.09;4972879;28;96901;-73
2022/02/17 07:53:20;;;;;;;15.88;2.33;;;;;;;11.48;40.63;98211.34;4972914;28;96851;-73
2022/02/17 07:55:46;;;;;;;12.48;1.92;;;;;;;12.15;39.91;98223.63;4975592;28;98202;-73
2022/02/17 07:58:15;;;;;;;25.20;2.25;;;;;;;11.55;40.00;98201.94;4976150;28;99232;-74
2022/02/17 08:00:42;;;;;;;14.65;1.92;;;;;;;11.77;39.82;98216.16;4977627;28;96810;-72
2022/02/17 08:03:10;;;;;;;11.40;2.15;;;;;;;12.26;38.72;98224.44;4974373;28;96888;-74
2022/02/17 08:05:38;;;;;;;11.38;1.92;;;;;;;11.97;39.22;98223.31;4978335;28;99577;-73
2022/02/17 08:08:05;;;;;;;13.57;1.90;;;;;;;12.06;39.09;98235.81;4979805;28;99288;-74
2022/02/17 08:10:31;;;;;;;9.85;1.73;;;;;;;12.08;39.03;98247.09;4975604;28;99174;-79
2022/02/17 08:12:58;;;;;;;18.77;2.65;;;;;;;11.98;39.42;98246.19;4979416;28;98718;-79
2022/02/17 08:15:24;;;;;;;12.25;1.88;;;;;;;11.75;39.71;98252.50;4976276;28;102580;-78
2022/02/17 08:17:51;;;;;;;11.68;1.60;;;;;;;12.08;39.60;98247.09;4977816;28;99052;-79
2022/02/17 08:20:19;;;;;;;19.23;2.25;;;;;;;11.99;39.46;98255.81;4981554;28;96942;-79
2022/02/17 08:22:49;;;;;;;10.25;1.73;;;;;;;11.84;40.10;98243.78;4975119;28;97006;-78
2022/02/17 08:25:15;;;;;;;12.73;2.05;;;;;;;12.21;40.04;98258.38;4978090;28;98174;-78
2022/02/17 08:27:41;;;;;;;10.95;1.77;;;;;;;11.62;41.31;98222.66;4969857;28;97801;-78
2022/02/17 08:30:09;;;;;;;13.13;1.48;;;;;;;11.73;40.62;98257.00;4973896;28;96737;-78
2022/02/17 08:32:36;;;;;;;11.18;1.70;;;;;;;12.23;39.87;98268.84;4971007;28;96763;-79
2022/02/17 08:35:02;;;;;;;13.25;2.00;;;;;;;11.67;40.58;98268.94;4971370;28;100415;-78
2022/02/17 08:37:30;;;;;;;12.18;2.00;;;;;;;11.87;40.92;98286.75;4966191;28;98860;-80
2022/02/17 08:39:57;;;;;;;14.02;2.15;;;;;;;12.12;40.20;98298.84;4967804;28;96825;-78
2022/02/17 08:42:23;;;;;;;22.92;2.72;;;;;;;12.01;40.15;98272.41;4972337;28;97454;-79
2022/02/17 08:44:49;;;;;;;11.10;1.88;;;;;;;12.53;39.83;98284.91;4971408;28;102234;-78
2022/02/17 08:47:17;;;;;;;12.60;1.75;;;;;;;12.27;40.21;98281.72;4977249;28;99487;-77
2022/02/17 08:49:44;;;;;;;11.57;1.95;;;;;;;11.95;40.77;98300.19;4972332;28;97685;-78
2022/02/17 08:52:11;;;;;;;14.18;2.08;;;;;;;11.82;40.90;98298.63;4971027;28;97601;-78
2022/02/17 08:54:41;;;;;;;13.50;1.73;;;;;;;12.50;39.77;98322.22;4980274;28;99558;-80
2022/02/17 08:57:08;;;;;;;8.57;1.52;;;;;;;11.97;40.49;98282.38;4974441;28;97285;-79
2022/02/17 08:59:34;;;;;;;10.93;1.65;;;;;;;11.55;41.78;98299.81;4969386;28;97293;-79
2022/02/17 09:02:02;;;;;;;11.60;1.88;;;;;;;11.58;41.62;98317.25;4979269;28;97212;-80
2022/02/17 09:04:30;;;;;;;9.95;1.90;;;;;;;12.16;40.46;98353.22;4978764;28;98978;-80
2022/02/17 09:06:57;;;;;;;7.82;1.48;;;;;;;12.27;40.35;98347.09;4977896;28;100736;-80
2022/02/17 09:09:24;;;;;;;16.25;1.85;;;;;;;12.21;40.56;98326.38;4971144;28;97419;-78
2022/02/17 09:11:52;;;;;;;16.23;2.35;;;;;;;12.30;40.12;98350.31;4972576;28;96890;-82
2022/02/17 09:14:18;;;;;;;11.10;1.90;;;;;;;12.10;40.92;98345.78;4976475;28;100527;-80
2022/02/17 09:16:46;;;;;;;13.50;2.20;;;;;;;12.23;40.66;98325.28;4976421;28;99962;-80
2022/02/17 09:19:13;;;;;;;10.93;1.38;;;;;;;11.81;41.62;98371.06;4976118;28;96808;-78
2022/02/17 09:21:40;;;;;;;13.77;1.63;;;;;;;11.55;42.36;98391.56;4973178;28;97053;-80
2022/02/17 09:24:07;;;;;;;11.02;2.20;;;;;;;11.40;42.90;98374.19;4968077;28;99439;-79
2022/02/17 09:26:36;;;;;;;10.88;1.52;;;;;;;11.59;42.21;98393.00;4974750;28;99305;-78
2022/02/17 09:29:04;;;;;;;12.13;1.65;;;;;;;11.62;42.26;98410.44;4974945;28;96844;-78
2022/02/17 09:31:31;;;;;;;8.82;1.65;;;;;;;11.98;41.48;98420.84;4974313;28;96863;-79
2022/02/17 09:33:58;;;;;;;10.93;1.73;;;;;;;11.68;42.13;98428.50;4970154;28;102060;-79
2022/02/17 09:36:26;;;;;;;18.75;1.90;;;;;;;11.77;42.37;98415.41;4977911;28;99277;-78
2022/02/17 09:38:53;;;;;;;12.98;2.10;;;;;;;11.47;42.71;98393.94;4969875;28;96818;-79
2022/02/17 09:41:21;;;;;;;12.77;1.58;;;;;;;12.05;41.62;98443.25;4978823;28;97131;-80
2022/02/17 09:43:49;;;;;;;16.45;2.35;;;;;;;12.07;42.01;98429.91;4977300;28;101874;-79
2022/02/17 09:46:21;;;;;;;16.25;2.47;;;;;;;12.10;42.08;98443.72;4980997;28;101478;-81
2022/02/17 09:48:55;;;;;;;9.85;1.85;;;;;;;12.24;42.69;98408.22;4972713;28;96869;-79
2022/02/17 09:51:23;;;;;;;6.10;1.25;;;;;;;11.87;43.07;98487.84;4974999;28;96967;-80
2022/02/17 09:53:50;;;;;;;11.68;1.45;;;;;;;11.27;44.55;98495.91;4974959;28;99699;-80
2022/02/17 09:56:17;;;;;;;9.32;0.90;;;;;;;11.44;44.53;98497.28;4973155;28;99106;-79
2022/02/17 09:58:43;;;;;;;11.27;1.85;;;;;;;11.73;44.94;98516.28;4975418;28;97726;-79
2022/02/17 10:01:17;;;;;;;11.52;1.52;;;;;;;11.30;45.40;98519.47;4976149;28;97242;-79
2022/02/17 10:03:48;;;;;;;13.10;1.38;;;;;;;11.34;45.74;98538.59;4970919;28;97618;-80
2022/02/17 10:06:16;;;;;;;6.88;0.95;;;;;;;11.43;45.67;98565.19;4972131;28;98917;-78
2022/02/17 10:08:44;;;;;;;8.07;1.38;;;;;;;11.67;45.37;98507.00;4975000;28;96895;-79
2022/02/17 10:11:28;;;;;;;8.15;1.33;;;;;;;11.73;44.84;98606.22;4973138;28;97333;-78
2022/02/17 10:14:02;;;;;;;10.85;1.60;;;;;;;11.21;46.83;98565.09;4985356;28;98978;-79
2022/02/17 10:16:29;;;;;;;13.18;1.40;;;;;;;11.04;46.73;98568.09;4980265;28;99032;-78
2022/02/17 10:19:09;;;;;;;5.28;1.05;;;;;;;11.57;45.97;98565.03;4969917;28;97279;-78
2022/02/17 10:21:36;;;;;;;9.23;1.35;;;;;;;11.53;46.33;98570.66;4970723;28;96986;-79
2022/02/17 10:24:02;;;;;;;9.25;1.05;;;;;;;11.83;45.58;98599.31;4974589;28;100454;-77
2022/02/17 10:26:30;;;;;;;10.40;1.52;;;;;;;11.38;46.52;98601.72;4974709;28;99130;-78
2022/02/17 10:29:03;;;;;;;9.02;1.63;;;;;;;11.71;45.88;98624.84;4971656;28;96832;-81
2022/02/17 10:31:35;;;;;;;10.07;1.17;;;;;;;11.55;46.68;98625.13;4975836;28;96956;-79
2022/02/17 10:34:05;;;;;;;8.05;1.35;;;;;;;11.72;46.24;98621.25;4972421;28;99255;-79
2022/02/17 10:36:34;;;;;;;7.75;1.67;;;;;;;11.47;46.59;98639.88;4973972;28;97709;-79
2022/02/17 10:39:12;;;;;;;10.50;1.25;;;;;;;11.78;45.93;98676.41;4973042;28;97062;-80
2022/02/17 10:41:49;;;;;;;12.20;1.55;;;;;;;11.64;46.70;98644.78;4970794;28;96791;-79
2022/02/17 10:44:17;;;;;;;10.85;1.70;;;;;;;12.43;44.76;98668.00;4973768;28;100409;-79
2022/02/17 10:46:43;;;;;;;10.93;1.25;;;;;;;11.85;45.58;98635.31;4973238;28;97533;-79
2022/02/17 10:49:12;;;;;;;11.88;1.20;;;;;;;11.31;47.04;98663.91;4970742;28;97509;-78
2022/02/17 10:51:39;;;;;;;8.43;1.20;;;;;;;12.13;45.48;98691.50;4974431;28;96770;-78
2022/02/17 10:54:07;;;;;;;7.53;1.33;;;;;;;11.45;46.18;98679.66;4973641;28;98917;-78
2022/02/17 10:56:35;;;;;;;6.32;1.23;;;;;;;11.67;46.82;98631.34;4972120;28;98317;-78
2022/02/17 10:59:03;;;;;;;8.38;1.35;;;;;;;11.80;46.38;98700.97;4969722;28;97818;-79
2022/02/17 11:01:30;;;;;;;13.57;1.90;;;;;;;11.72;46.24;98673.31;4969675;28;96811;-76
2022/02/17 11:03:57;;;;;;;28.25;3.00;;;;;;;11.96;45.46;98724.50;4977771;28;99182;-80
2022/02/17 11:06:25;;;;;;;16.38;1.92;;;;;;;12.11;45.14;98718.09;4972081;28;98993;-78
2022/02/17 11:08:53;;;;;;;38.38;2.08;;;;;;;11.90;45.46;98730.22;4972629;28;97228;-79
2022/02/17 11:11:22;;;;;;;54.50;2.25;;;;;;;11.14;47.20;98685.44;4973257;28;97336;-81
2022/02/17 11:13:50;;;;;;;18.38;1.35;;;;;;;11.14;47.23;98656.34;4971865;28;101519;-79
2022/02/17 11:16:20;;;;;;;31.75;1.90;;;;;;;11.20;46.61;98735.22;4972977;28;102288;-81
2022/02/17 11:18:48;;;;;;;13.45;1.65;;;;;;;11.26;46.33;98748.00;4972834;28;97080;-80
2022/02/17 11:21:16;;;;;;;35.97;1.65;;;;;;;11.26;45.99;98774.44;4972573;28;97330;-79
2022/02/17 11:23:44;;;;;;;7.82;1.50;;;;;;;11.34;46.44;98748.34;4969725;28;98280;-79
2022/02/17 11:26:20;;;;;;;11.50;1.40;;;;;;;12.27;44.91;98776.06;4975620;28;101513;-81
2022/02/17 11:28:47;;;;;;;7.80;1.10;;;;;;;12.68;45.05;98768.50;4969065;28;96791;-80
2022/02/17 11:31:13;;;;;;;11.00;1.45;;;;;;;12.53;45.46;98776.78;4973895;28;96810;-79
2022/02/17 11:33:41;;;;;;;7.63;1.80;;;;;;;12.52;45.46;98788.34;4980872;28;98873;-78